EZY82GA EKCH-EGKK
Flight info
| Callsign | EZY82GA |
|---|---|
| Flight time | N/A |
| Altitude | 38000 |
| Route | ODDON DCT LONAM DCT BINBO DCT AKOKO N866 BUKUT P7 BARMI |
| Aircraft | A20N/M-SDE2E3FGHIRWXY/LB1 |
Departure
| Time | 2026-05-04 19:40 |
|---|---|
| Airport | Copenhagen Kastrup Airport (EKCH) |
Arrival
| Time | N/A |
|---|---|
| Airport | London Gatwick Airport (EGKK) |
| Time | Latitude | Longitude | Altitude | Speed | Heading |
|---|---|---|---|---|---|
| 2026-05-04 18:43 | 55.62514 | 12.65684 | 17 ft | 0 kts | 359° |
| 2026-05-04 19:20 | 55.62492 | 12.65686 | 18 ft | 4 kts | 353° |
| 2026-05-04 19:20 | 55.62466 | 12.65695 | 18 ft | 4 kts | 338° |
| 2026-05-04 19:20 | 55.62446 | 12.65718 | 21 ft | 4 kts | 288° |
| 2026-05-04 19:20 | 55.62444 | 12.65759 | 20 ft | 4 kts | 268° |
| 2026-05-04 19:21 | 55.62444 | 12.65807 | 20 ft | 4 kts | 268° |
| 2026-05-04 19:21 | 55.62445 | 12.65852 | 20 ft | 2 kts | 269° |
| 2026-05-04 19:21 | 55.62445 | 12.65855 | 20 ft | 0 kts | 269° |
| 2026-05-04 19:24 | 55.62445 | 12.65839 | 16 ft | 3 kts | 269° |
| 2026-05-04 19:24 | 55.62444 | 12.65775 | 16 ft | 7 kts | 269° |
| 2026-05-04 19:24 | 55.62442 | 12.65674 | 16 ft | 9 kts | 268° |
| 2026-05-04 19:25 | 55.62442 | 12.65631 | 16 ft | 0 kts | 268° |
| 2026-05-04 19:26 | 55.62442 | 12.65609 | 16 ft | 5 kts | 268° |
| 2026-05-04 19:27 | 55.62440 | 12.65463 | 16 ft | 16 kts | 268° |
| 2026-05-04 19:27 | 55.62438 | 12.65335 | 16 ft | 10 kts | 269° |
| 2026-05-04 19:27 | 55.62425 | 12.65221 | 18 ft | 9 kts | 226° |
| 2026-05-04 19:27 | 55.62361 | 12.65205 | 16 ft | 6 kts | 179° |
| 2026-05-04 19:28 | 55.62311 | 12.65202 | 16 ft | 9 kts | 192° |
| 2026-05-04 19:28 | 55.62274 | 12.65112 | 16 ft | 10 kts | 265° |
| 2026-05-04 19:28 | 55.62301 | 12.65002 | 16 ft | 7 kts | 303° |
| 2026-05-04 19:28 | 55.62332 | 12.64919 | 16 ft | 9 kts | 303° |
| 2026-05-04 19:29 | 55.62351 | 12.64861 | 16 ft | 6 kts | 290° |
| 2026-05-04 19:29 | 55.62342 | 12.64779 | 19 ft | 8 kts | 245° |
| 2026-05-04 19:29 | 55.62319 | 12.64693 | 16 ft | 7 kts | 246° |
| 2026-05-04 19:29 | 55.62313 | 12.64667 | 19 ft | 0 kts | 246° |
| 2026-05-04 19:30 | 55.62305 | 12.64638 | 16 ft | 7 kts | 246° |
| 2026-05-04 19:30 | 55.62289 | 12.64572 | 16 ft | 0 kts | 246° |
| 2026-05-04 19:32 | 55.62288 | 12.64568 | 16 ft | 2 kts | 246° |
| 2026-05-04 19:32 | 55.62263 | 12.64467 | 16 ft | 16 kts | 246° |
| 2026-05-04 19:32 | 55.62180 | 12.64331 | 16 ft | 18 kts | 205° |
| 2026-05-04 19:33 | 55.62061 | 12.64231 | 18 ft | 20 kts | 206° |
| 2026-05-04 19:33 | 55.61943 | 12.64132 | 17 ft | 16 kts | 205° |
| 2026-05-04 19:33 | 55.61858 | 12.64069 | 16 ft | 9 kts | 188° |
| 2026-05-04 19:33 | 55.61817 | 12.64072 | 16 ft | 1 kts | 176° |
| 2026-05-04 19:34 | 55.61799 | 12.64075 | 17 ft | 0 kts | 176° |
| 2026-05-04 19:37 | 55.61771 | 12.64078 | 16 ft | 10 kts | 176° |
| 2026-05-04 19:38 | 55.61744 | 12.64082 | 18 ft | 9 kts | 176° |
| 2026-05-04 19:38 | 55.61640 | 12.64082 | 16 ft | 10 kts | 196° |
| 2026-05-04 19:38 | 55.61572 | 12.63993 | 16 ft | 14 kts | 221° |
| 2026-05-04 19:38 | 55.61546 | 12.63953 | 16 ft | 0 kts | 221° |
| 2026-05-04 19:39 | 55.61367 | 12.63671 | 17 ft | 69 kts | 221° |
| 2026-05-04 19:39 | 55.60848 | 12.62874 | 18 ft | 125 kts | 221° |
| 2026-05-04 19:39 | 55.60073 | 12.61699 | 33 ft | 166 kts | 222° |
| 2026-05-04 19:40 | 55.59209 | 12.60431 | 557 ft | 165 kts | 222° |
| 2026-05-04 19:40 | 55.58278 | 12.59055 | 921 ft | 183 kts | 222° |
| 2026-05-04 19:40 | 55.57290 | 12.57566 | 1497 ft | 185 kts | 225° |
| 2026-05-04 19:40 | 55.56341 | 12.56009 | 2144 ft | 193 kts | 233° |
| 2026-05-04 19:41 | 55.55738 | 12.53824 | 2581 ft | 207 kts | 262° |
| 2026-05-04 19:41 | 55.55831 | 12.51225 | 3074 ft | 226 kts | 282° |
| 2026-05-04 19:41 | 55.56149 | 12.48368 | 3672 ft | 246 kts | 282° |
| 2026-05-04 19:41 | 55.56480 | 12.45384 | 4637 ft | 249 kts | 281° |
| 2026-05-04 19:42 | 55.56807 | 12.42373 | 5663 ft | 250 kts | 280° |
| 2026-05-04 19:42 | 55.57127 | 12.39341 | 6655 ft | 252 kts | 279° |
| 2026-05-04 19:42 | 55.57446 | 12.36274 | 7583 ft | 256 kts | 279° |
| 2026-05-04 19:42 | 55.57766 | 12.33177 | 8534 ft | 258 kts | 279° |
| 2026-05-04 19:43 | 55.58024 | 12.30009 | 9475 ft | 261 kts | 273° |
| 2026-05-04 19:43 | 55.58117 | 12.26780 | 10316 ft | 268 kts | 272° |
| 2026-05-04 19:43 | 55.58218 | 12.23410 | 10685 ft | 290 kts | 272° |
| 2026-05-04 19:43 | 55.58334 | 12.19720 | 11009 ft | 311 kts | 273° |
| 2026-05-04 19:44 | 55.58456 | 12.15864 | 11744 ft | 316 kts | 272° |
| 2026-05-04 19:44 | 55.58579 | 12.11969 | 12591 ft | 319 kts | 272° |
| 2026-05-04 19:44 | 55.58701 | 12.08031 | 13414 ft | 323 kts | 272° |
| 2026-05-04 19:44 | 55.58822 | 12.04048 | 14177 ft | 327 kts | 272° |
| 2026-05-04 19:45 | 55.58943 | 12.00020 | 14903 ft | 330 kts | 272° |
| 2026-05-04 19:45 | 55.59063 | 11.95946 | 15622 ft | 333 kts | 272° |
| 2026-05-04 19:45 | 55.59184 | 11.91829 | 16331 ft | 337 kts | 272° |
| 2026-05-04 19:45 | 55.59304 | 11.87668 | 17032 ft | 341 kts | 272° |
| 2026-05-04 19:46 | 55.59423 | 11.83523 | 17712 ft | 344 kts | 272° |
| 2026-05-04 19:46 | 55.59543 | 11.79274 | 18373 ft | 348 kts | 272° |
| 2026-05-04 19:46 | 55.59663 | 11.74986 | 18973 ft | 351 kts | 272° |
| 2026-05-04 19:46 | 55.59783 | 11.70647 | 19574 ft | 354 kts | 272° |
| 2026-05-04 19:47 | 55.59903 | 11.66275 | 20161 ft | 358 kts | 272° |
| 2026-05-04 19:47 | 55.60022 | 11.61863 | 20751 ft | 361 kts | 272° |
| 2026-05-04 19:47 | 55.60140 | 11.57406 | 21338 ft | 364 kts | 272° |
| 2026-05-04 19:47 | 55.60257 | 11.52977 | 21905 ft | 368 kts | 272° |
| 2026-05-04 19:48 | 55.60375 | 11.48438 | 22472 ft | 371 kts | 272° |